Lavrinhas, Brazil
Current Conditions -  °F | °C
As of 7:00 PM on Monday 20 Oct 2014 (Local Time) from SBGW Reporting Station
Overcast Overcast  
Wind Chill: 73°   Ceiling: 1400
Heat Index: 73°   Visibility: 4mi
Dew Point: 63°   Wind: 6mph
Humidity: 69%   Direction: 270°W
Pressure: 30.06"   Gusts: NA
Location:  22.57°S, 44.9°W
Report Text: SBGW 202200Z 27005KT 7000 BKN014 OVC070 23/17 Q1018
Loading
Personal Weather Stations






























Interactive Weather Map
Tropical Storm Tracking
New forecast layout! Learn more

10-Day Weather Forecast

Advertisements
Track Severe Weather on mobile